Language selection

Features

My Weather Profile Weather Topics  | 

Pacific - South Coast: Past 24 Hour Conditions

 

East Dellwood - 46207

03:00 AM PST 20 November 2019Buoy position: 50.88N 129.93W
Disclaimer

This table is a summary of hourly weather conditions for the past 24 hours.
Please note that these observations might not always be representative of weather conditions over their associated marine area.

Date / Time
(PST)
Wind(knots) Wave height(m) Wave period(s) Pressure(kPa) Air tempC) Water tempC)
20 November 2019
3:00 NNW 13 gust 16 2.3 11.0 102.4 10 11
2:00 NNW 16 gust 17 2.4 11.0 102.5 10 11
1:00 NNW 16 gust 17 2.5 11.0 102.5 10 11
0:00 NNW 16 gust 17 2.6 6.0 102.5 10 11
19 November 2019
23:00 NNW 16 gust 19 2.6 8.0 102.5 10 11
22:00 NNW 17 gust 19 2.7 10.0 102.5 10 11
21:00 NNW 17 gust 22 2.8 8.0 102.5 10 11
20:00 NNW 22 gust 25 3.0 12.0 102.4 10 11
19:00 NNW 19 gust 23 3.0 8.0 102.4 10 11
18:00 NW 23 gust 27 3.2 8.0 102.4 10 11
17:00 NNW 22 gust 25 3.5 8.0 102.3 10 11
16:00 NNW 22 gust 27 3.2 8.0 102.3 10 11
15:00 NNW 23 gust 29 3.7 8.0 102.3 10 11
14:00 NNW 23 gust 31 3.8 8.0 102.2 10 11
13:00 NNW 25 gust 31 4.0 8.0 102.2 10 11
12:00 NNW 25 gust 31 4.1 8.0 102.1 10 11
11:00 NNW 27 gust 31 3.8 8.0 102.1 10 11
10:00 NNW 23 gust 29 3.7 8.0 102.0 10 11
9:00 NNW 25 gust 35 4.0 8.0 101.9 10 11
8:00 NNW 27 gust 35 3.5 8.0 101.8 10 11
7:00 NNW 27 gust 35 3.3 7.0 101.8 10 11
6:00 NW 25 gust 31 3.0 7.0 101.7 10 11
5:00 NNW 25 gust 31 3.1 7.0 101.6 10 11
4:00 NNW 25 gust 31 2.9 7.0 101.6 10 11
3:00 NNW 23 gust 29 2.5 7.0 101.6 10 11

Zoom-in to make a selection

Map of Pacific - South Coast marine weather areas South Nomad - 46036 Sentry Shoal - 46131 South Brooks - 46132 Halibut Bank - 46146 South Moresby - 46147 South Hecate Strait - 46185 West Sea Otter - 46204 La Perouse Bank - 46206 East Dellwood - 46207 Discovery Island Esquimalt Harbour Kelp Reefs Malahat Race Rocks Lightstation Saturna Island Sheringham Point University of Victoria Victoria Gonzales Victoria Int'l Airport Ballenas Islands Campbell River Airport Comox Airport Entrance Island Fanny Island Nanaimo Airport Port Hardy Airport Sisters Islets Estevan Point Port Alberni Sartine Island Solander Island Tofino Airport Grief Point Howe Sound - Pam Rocks Powell River Airport Sechelt Squamish Airport Cape St.James Bella Bella Airport Bella Coola Airport Cathedral Point Herbert Island Point Atkinson Sand Heads Lightstation Tsawwassen Ferry Terminal Vancouver Int'l Airport Vancouver Harbour West Vancouver
Legend:
buoy Buoy
land station Land Station

Pacific - South Coast Area

Another Region

What we are doing

Date modified: